PWSweather.com
Personal Weather Stations
Station Observations
BWSWX1
Teesside, BillinghamGB TS23 1DL

TeessideBillinghamGB TS23 1DL

Lat: 54.588219, Lon: -1.289528

Elevation: 39

Station Type: Davis Vantage Pro2 Plus

http://billinghamweather.com/index.php

High Low Average
Temperature 54.8°F12.7°F 41.1°F5.1°F 48.4°F9.1°F
Dew Point 50.6°F10.3°F 38.1°F3.4°F 44.2°F6.8°F
Winds 13.8 mph SW22.2 mph SW 1.0 mph 1.6 mph 5.7 mph 9.2 mph
Wind Gusts 22.0 mph35.4 mph 2.0 mph3.2 mph 10.2 mph16.4 mph
Humidity 90% 77% 85%
Pressure 29.87 in1011.50 in 29.56 in1001.00 in -
Precipitation 0.00 in0.00 in - -
Hour Temp Dew Point Humidity Winds Wind Gusts Pressure Precip Precip Rate Daily Precip Total
12:00 AM 41.1°F5.1°C 38.1°F3.4°C 89% 3.6 mph SSE5.8 kmh SSE 8.0 mph12.9 kmh 29.87 in1011.5 mb - 0.00 in0.0 mm 0.00 in0.0 mm
12:10 AM 41.2°F5.1°C 38.2°F3.4°C 89% 3.2 mph SSW5.1 kmh SSW 6.0 mph9.7 kmh 29.87 in1011.5 mb - 0.00 in0.0 mm 0.00 in0.0 mm
12:20 AM 41.4°F5.2°C 38.1°F3.4°C 88% 1.2 mph SSW1.9 kmh SSW 2.0 mph3.2 kmh 29.86 in1011.2 mb - 0.00 in0.0 mm 0.00 in0.0 mm
12:30 AM 41.4°F5.2°C 38.1°F3.4°C 88% 2.0 mph WSW3.2 kmh WSW 3.0 mph4.8 kmh 29.86 in1011.2 mb - 0.00 in0.0 mm 0.00 in0.0 mm
12:40 AM 41.5°F5.3°C 38.2°F3.4°C 88% 1.3 mph S2.1 kmh S 2.0 mph3.2 kmh 29.86 in1011.2 mb - 0.00 in0.0 mm 0.00 in0.0 mm
12:50 AM 41.6°F5.3°C 38.3°F3.5°C 88% 2.9 mph S4.7 kmh S 6.0 mph9.7 kmh 29.86 in1011.2 mb - 0.00 in0.0 mm 0.00 in0.0 mm
01:00 AM 41.9°F5.5°C 38.6°F3.7°C 88% 2.9 mph SE4.7 kmh SE 5.0 mph8.0 kmh 29.86 in1011.2 mb - 0.00 in0.0 mm 0.00 in0.0 mm
01:10 AM 41.9°F5.5°C 38.6°F3.7°C 88% 1.0 mph SSE1.6 kmh SSE 3.0 mph4.8 kmh 29.86 in1011.2 mb - 0.00 in0.0 mm 0.00 in0.0 mm
01:20 AM 41.9°F5.5°C 38.6°F3.7°C 88% 1.9 mph SSE3.1 kmh SSE 3.0 mph4.8 kmh 29.85 in1010.8 mb - 0.00 in0.0 mm 0.00 in0.0 mm
01:30 AM 41.9°F5.5°C 38.3°F3.5°C 87% 1.1 mph S1.8 kmh S 3.0 mph4.8 kmh 29.85 in1010.8 mb - 0.00 in0.0 mm 0.00 in0.0 mm
01:40 AM 41.9°F5.5°C 38.3°F3.5°C 87% 2.9 mph SW4.7 kmh SW 5.0 mph8.0 kmh 29.85 in1010.8 mb - 0.00 in0.0 mm 0.00 in0.0 mm
01:50 AM 42.0°F5.6°C 38.4°F3.6°C 87% 2.1 mph WSW3.4 kmh WSW 4.0 mph6.4 kmh 29.84 in1010.5 mb - 0.00 in0.0 mm 0.00 in0.0 mm
02:00 AM 42.3°F5.7°C 38.4°F3.6°C 86% 1.2 mph SSW1.9 kmh SSW 4.0 mph6.4 kmh 29.84 in1010.5 mb - 0.00 in0.0 mm 0.00 in0.0 mm
02:10 AM 42.7°F5.9°C 38.8°F3.8°C 86% 1.8 mph SSW2.9 kmh SSW 3.0 mph4.8 kmh 29.84 in1010.5 mb - 0.00 in0.0 mm 0.00 in0.0 mm
02:20 AM 42.8°F6.0°C 38.9°F3.8°C 86% 1.1 mph S1.8 kmh S 2.0 mph3.2 kmh 29.84 in1010.5 mb - 0.00 in0.0 mm 0.00 in0.0 mm
02:30 AM 42.9°F6.1°C 39.0°F3.9°C 86% 1.0 mph S1.6 kmh S 2.0 mph3.2 kmh 29.84 in1010.5 mb - 0.00 in0.0 mm 0.00 in0.0 mm
02:40 AM 43.0°F6.1°C 38.8°F3.8°C 85% 3.0 mph SW4.8 kmh SW 5.0 mph8.0 kmh 29.83 in1010.2 mb - 0.00 in0.0 mm 0.00 in0.0 mm
02:50 AM 43.3°F6.3°C 39.1°F3.9°C 85% 3.5 mph S5.6 kmh S 6.0 mph9.7 kmh 29.83 in1010.2 mb - 0.00 in0.0 mm 0.00 in0.0 mm
03:00 AM 43.6°F6.4°C 39.0°F3.9°C 84% 1.4 mph S2.3 kmh S 2.0 mph3.2 kmh 29.83 in1010.2 mb - 0.00 in0.0 mm 0.00 in0.0 mm
03:10 AM 43.6°F6.4°C 39.0°F3.9°C 84% 2.2 mph ESE3.5 kmh ESE 7.0 mph11.3 kmh 29.82 in1009.8 mb - 0.00 in0.0 mm 0.00 in0.0 mm
03:20 AM 43.5°F6.4°C 39.0°F3.9°C 84% 2.8 mph S4.5 kmh S 6.0 mph9.7 kmh 29.82 in1009.8 mb - 0.00 in0.0 mm 0.00 in0.0 mm
03:30 AM 43.4°F6.3°C 38.9°F3.8°C 84% 1.9 mph SSW3.1 kmh SSW 5.0 mph8.0 kmh 29.81 in1009.5 mb - 0.00 in0.0 mm 0.00 in0.0 mm
03:40 AM 43.4°F6.3°C 38.9°F3.8°C 84% 3.8 mph WSW6.1 kmh WSW 9.0 mph14.5 kmh 29.81 in1009.5 mb - 0.00 in0.0 mm 0.00 in0.0 mm
03:50 AM 43.4°F6.3°C 39.2°F4.0°C 85% 3.6 mph SSE5.8 kmh SSE 6.0 mph9.7 kmh 29.81 in1009.5 mb - 0.00 in0.0 mm 0.00 in0.0 mm
04:00 AM 43.3°F6.3°C 39.1°F3.9°C 85% 4.0 mph SE6.4 kmh SE 7.0 mph11.3 kmh 29.80 in1009.1 mb - 0.00 in0.0 mm 0.00 in0.0 mm
04:10 AM 43.4°F6.3°C 39.5°F4.2°C 86% 3.7 mph WSW6.0 kmh WSW 7.0 mph11.3 kmh 29.80 in1009.1 mb - 0.00 in0.0 mm 0.00 in0.0 mm
04:20 AM 43.5°F6.4°C 39.6°F4.2°C 86% 2.5 mph SW4.0 kmh SW 6.0 mph9.7 kmh 29.80 in1009.1 mb - 0.00 in0.0 mm 0.00 in0.0 mm
04:30 AM 43.5°F6.4°C 39.6°F4.2°C 86% 3.0 mph SW4.8 kmh SW 7.0 mph11.3 kmh 29.79 in1008.8 mb - 0.00 in0.0 mm 0.00 in0.0 mm
04:40 AM 43.6°F6.4°C 40.0°F4.4°C 87% 3.2 mph SSW5.1 kmh SSW 7.0 mph11.3 kmh 29.79 in1008.8 mb - 0.00 in0.0 mm 0.00 in0.0 mm
04:50 AM 43.8°F6.6°C 40.1°F4.5°C 87% 4.5 mph SSW7.2 kmh SSW 8.0 mph12.9 kmh 29.78 in1008.5 mb - 0.00 in0.0 mm 0.00 in0.0 mm
05:00 AM 44.1°F6.7°C 40.5°F4.7°C 87% 3.5 mph SE5.6 kmh SE 7.0 mph11.3 kmh 29.77 in1008.1 mb - 0.00 in0.0 mm 0.00 in0.0 mm
05:10 AM 44.2°F6.8°C 40.6°F4.8°C 87% 4.2 mph S6.8 kmh S 7.0 mph11.3 kmh 29.77 in1008.1 mb - 0.00 in0.0 mm 0.00 in0.0 mm
05:20 AM 44.3°F6.8°C 40.4°F4.7°C 86% 3.9 mph S6.3 kmh S 6.0 mph9.7 kmh 29.76 in1007.8 mb - 0.00 in0.0 mm 0.00 in0.0 mm
05:30 AM 44.3°F6.8°C 40.7°F4.8°C 87% 3.3 mph ENE5.3 kmh ENE 8.0 mph12.9 kmh 29.75 in1007.5 mb - 0.00 in0.0 mm 0.00 in0.0 mm
05:40 AM 44.4°F6.9°C 40.8°F4.9°C 87% 4.6 mph SW7.4 kmh SW 14.0 mph22.5 kmh 29.75 in1007.5 mb - 0.00 in0.0 mm 0.00 in0.0 mm
05:50 AM 44.8°F7.1°C 41.2°F5.1°C 87% 5.3 mph S8.5 kmh S 12.0 mph19.3 kmh 29.75 in1007.5 mb - 0.00 in0.0 mm 0.00 in0.0 mm
06:00 AM 45.0°F7.2°C 41.4°F5.2°C 87% 2.5 mph S4.0 kmh S 4.0 mph6.4 kmh 29.75 in1007.5 mb - 0.00 in0.0 mm 0.00 in0.0 mm
06:10 AM 45.1°F7.3°C 41.5°F5.3°C 87% 4.9 mph SE7.9 kmh SE 9.0 mph14.5 kmh 29.73 in1006.8 mb - 0.00 in0.0 mm 0.00 in0.0 mm
06:20 AM 45.2°F7.3°C 41.6°F5.3°C 87% 5.2 mph SE8.4 kmh SE 9.0 mph14.5 kmh 29.73 in1006.8 mb - 0.00 in0.0 mm 0.00 in0.0 mm
06:30 AM 45.2°F7.3°C 41.6°F5.3°C 87% 2.9 mph S4.7 kmh S 6.0 mph9.7 kmh 29.73 in1006.8 mb - 0.00 in0.0 mm 0.00 in0.0 mm
06:40 AM 45.1°F7.3°C 41.5°F5.3°C 87% 2.9 mph SW4.7 kmh SW 5.0 mph8.0 kmh 29.72 in1006.4 mb - 0.00 in0.0 mm 0.00 in0.0 mm
06:50 AM 45.1°F7.3°C 41.4°F5.2°C 87% 5.4 mph S8.7 kmh S 8.0 mph12.9 kmh 29.71 in1006.1 mb - 0.00 in0.0 mm 0.00 in0.0 mm
07:00 AM 45.2°F7.3°C 41.9°F5.5°C 88% 3.7 mph S6.0 kmh S 10.0 mph16.1 kmh 29.70 in1005.8 mb - 0.00 in0.0 mm 0.00 in0.0 mm
07:10 AM 45.4°F7.4°C 42.1°F5.6°C 88% 5.1 mph SW8.2 kmh SW 11.0 mph17.7 kmh 29.70 in1005.8 mb - 0.00 in0.0 mm 0.00 in0.0 mm
07:20 AM 46.0°F7.8°C 42.9°F6.1°C 89% 6.1 mph SSE9.8 kmh SSE 12.0 mph19.3 kmh 29.70 in1005.8 mb - 0.00 in0.0 mm 0.00 in0.0 mm
07:30 AM 46.0°F7.8°C 42.6°F5.9°C 88% 10.6 mph S17.1 kmh S 15.0 mph24.1 kmh 29.69 in1005.4 mb - 0.00 in0.0 mm 0.00 in0.0 mm
07:40 AM 45.2°F7.3°C 41.9°F5.5°C 88% 6.2 mph SE10.0 kmh SE 14.0 mph22.5 kmh 29.69 in1005.4 mb - 0.00 in0.0 mm 0.00 in0.0 mm
07:50 AM 45.1°F7.3°C 41.8°F5.4°C 88% 5.7 mph S9.2 kmh S 9.0 mph14.5 kmh 29.69 in1005.4 mb - 0.00 in0.0 mm 0.00 in0.0 mm
08:00 AM 45.3°F7.4°C 42.2°F5.7°C 89% 5.6 mph SSE9.0 kmh SSE 7.0 mph11.3 kmh 29.69 in1005.4 mb - 0.00 in0.0 mm 0.00 in0.0 mm
08:10 AM 45.5°F7.5°C 42.5°F5.8°C 89% 4.2 mph SSE6.8 kmh SSE 8.0 mph12.9 kmh 29.68 in1005.1 mb - 0.00 in0.0 mm 0.00 in0.0 mm
08:20 AM 46.3°F7.9°C 43.5°F6.4°C 90% 6.0 mph SW9.7 kmh SW 15.0 mph24.1 kmh 29.67 in1004.7 mb - 0.00 in0.0 mm 0.00 in0.0 mm
08:30 AM 46.5°F8.1°C 43.4°F6.3°C 89% 5.4 mph SSE8.7 kmh SSE 10.0 mph16.1 kmh 29.67 in1004.7 mb - 0.00 in0.0 mm 0.00 in0.0 mm
08:40 AM 46.5°F8.1°C 43.7°F6.5°C 90% 5.8 mph SSE9.3 kmh SSE 11.0 mph17.7 kmh 29.66 in1004.4 mb - 0.00 in0.0 mm 0.00 in0.0 mm
08:50 AM 46.7°F8.2°C 43.9°F6.6°C 90% 5.4 mph S8.7 kmh S 12.0 mph19.3 kmh 29.66 in1004.4 mb - 0.00 in0.0 mm 0.00 in0.0 mm
09:00 AM 47.2°F8.4°C 44.4°F6.9°C 90% 5.4 mph S8.7 kmh S 13.0 mph20.9 kmh 29.66 in1004.4 mb - 0.00 in0.0 mm 0.00 in0.0 mm
09:10 AM 47.7°F8.7°C 44.9°F7.2°C 90% 7.1 mph SW11.4 kmh SW 10.0 mph16.1 kmh 29.65 in1004.1 mb - 0.00 in0.0 mm 0.00 in0.0 mm
09:20 AM 48.0°F8.9°C 45.2°F7.3°C 90% 6.6 mph SSW10.6 kmh SSW 9.0 mph14.5 kmh 29.64 in1003.7 mb - 0.00 in0.0 mm 0.00 in0.0 mm
09:30 AM 48.4°F9.1°C 45.6°F7.6°C 90% 8.0 mph S12.9 kmh S 17.0 mph27.4 kmh 29.64 in1003.7 mb - 0.00 in0.0 mm 0.00 in0.0 mm
09:40 AM 48.8°F9.3°C 46.0°F7.8°C 90% 5.5 mph S8.9 kmh S 9.0 mph14.5 kmh 29.64 in1003.7 mb - 0.00 in0.0 mm 0.00 in0.0 mm
09:50 AM 49.2°F9.6°C 46.4°F8.0°C 90% 9.0 mph SSE14.5 kmh SSE 13.0 mph20.9 kmh 29.64 in1003.7 mb - 0.00 in0.0 mm 0.00 in0.0 mm
10:00 AM 49.5°F9.7°C 46.7°F8.2°C 90% 5.9 mph S9.5 kmh S 14.0 mph22.5 kmh 29.63 in1003.4 mb - 0.00 in0.0 mm 0.00 in0.0 mm
10:10 AM 49.7°F9.8°C 46.6°F8.1°C 89% 5.2 mph SSW8.4 kmh SSW 12.0 mph19.3 kmh 29.63 in1003.4 mb - 0.00 in0.0 mm 0.00 in0.0 mm
10:20 AM 49.7°F9.8°C 46.6°F8.1°C 89% 7.6 mph SSW12.2 kmh SSW 12.0 mph19.3 kmh 29.63 in1003.4 mb - 0.00 in0.0 mm 0.00 in0.0 mm
10:30 AM 49.8°F9.9°C 46.7°F8.2°C 89% 5.5 mph WSW8.9 kmh WSW 14.0 mph22.5 kmh 29.63 in1003.4 mb - 0.00 in0.0 mm 0.00 in0.0 mm
10:40 AM 50.1°F10.1°C 47.0°F8.3°C 89% 8.8 mph SE14.2 kmh SE 14.0 mph22.5 kmh 29.62 in1003.0 mb - 0.00 in0.0 mm 0.00 in0.0 mm
10:50 AM 50.3°F10.2°C 47.2°F8.4°C 89% 3.1 mph SSW5.0 kmh SSW 5.0 mph8.0 kmh 29.62 in1003.0 mb - 0.00 in0.0 mm 0.00 in0.0 mm
11:00 AM 50.5°F10.3°C 47.4°F8.6°C 89% 3.6 mph SSW5.8 kmh SSW 7.0 mph11.3 kmh 29.61 in1002.7 mb - 0.00 in0.0 mm 0.00 in0.0 mm
11:10 AM 50.7°F10.4°C 47.6°F8.7°C 89% 6.1 mph W9.8 kmh W 9.0 mph14.5 kmh 29.60 in1002.4 mb - 0.00 in0.0 mm 0.00 in0.0 mm
11:20 AM 51.1°F10.6°C 48.0°F8.9°C 89% 4.0 mph SW6.4 kmh SW 7.0 mph11.3 kmh 29.59 in1002.0 mb - 0.00 in0.0 mm 0.00 in0.0 mm
11:30 AM 51.3°F10.7°C 48.2°F9.0°C 89% 4.8 mph S7.7 kmh S 9.0 mph14.5 kmh 29.59 in1002.0 mb - 0.00 in0.0 mm 0.00 in0.0 mm
11:40 AM 51.6°F10.9°C 48.4°F9.1°C 89% 4.5 mph SSE7.2 kmh SSE 7.0 mph11.3 kmh 29.58 in1001.7 mb - 0.00 in0.0 mm 0.00 in0.0 mm
11:50 AM 51.8°F11.0°C 48.7°F9.3°C 89% 6.5 mph WSW10.5 kmh WSW 19.0 mph30.6 kmh 29.59 in1002.0 mb - 0.00 in0.0 mm 0.00 in0.0 mm
12:00 PM 52.2°F11.2°C 49.1°F9.5°C 89% 7.9 mph SW12.7 kmh SW 17.0 mph27.4 kmh 29.58 in1001.7 mb - 0.00 in0.0 mm 0.00 in0.0 mm
12:10 PM 52.6°F11.4°C 49.4°F9.7°C 89% 3.3 mph SE5.3 kmh SE 5.0 mph8.0 kmh 29.58 in1001.7 mb - 0.00 in0.0 mm 0.00 in0.0 mm
12:20 PM 53.0°F11.7°C 49.5°F9.7°C 88% 6.8 mph S10.9 kmh S 11.0 mph17.7 kmh 29.57 in1001.4 mb - 0.00 in0.0 mm 0.00 in0.0 mm
12:30 PM 53.3°F11.8°C 49.8°F9.9°C 88% 4.9 mph W7.9 kmh W 11.0 mph17.7 kmh 29.58 in1001.7 mb - 0.00 in0.0 mm 0.00 in0.0 mm
12:40 PM 53.5°F11.9°C 50.0°F10.0°C 88% 4.9 mph N7.9 kmh N 12.0 mph19.3 kmh 29.58 in1001.7 mb - 0.00 in0.0 mm 0.00 in0.0 mm
12:50 PM 54.3°F12.4°C 50.5°F10.3°C 87% 6.3 mph S10.1 kmh S 12.0 mph19.3 kmh 29.57 in1001.4 mb - 0.00 in0.0 mm 0.00 in0.0 mm
01:00 PM 54.7°F12.6°C 50.6°F10.3°C 86% 4.6 mph W7.4 kmh W 11.0 mph17.7 kmh 29.57 in1001.4 mb - 0.00 in0.0 mm 0.00 in0.0 mm
01:10 PM 54.8°F12.7°C 50.4°F10.2°C 85% 7.6 mph SW12.2 kmh SW 13.0 mph20.9 kmh 29.56 in1001.0 mb - 0.00 in0.0 mm 0.00 in0.0 mm
01:20 PM 54.5°F12.5°C 50.1°F10.1°C 85% 7.3 mph S11.7 kmh S 15.0 mph24.1 kmh 29.56 in1001.0 mb - 0.00 in0.0 mm 0.00 in0.0 mm
01:30 PM 54.5°F12.5°C 50.1°F10.1°C 85% 6.4 mph E10.3 kmh E 11.0 mph17.7 kmh 29.56 in1001.0 mb - 0.00 in0.0 mm 0.00 in0.0 mm
01:40 PM 54.4°F12.4°C 50.0°F10.0°C 85% 9.6 mph SW15.4 kmh SW 15.0 mph24.1 kmh 29.56 in1001.0 mb - 0.00 in0.0 mm 0.00 in0.0 mm
01:50 PM 54.4°F12.4°C 50.0°F10.0°C 85% 9.6 mph SW15.4 kmh SW 12.0 mph19.3 kmh 29.57 in1001.4 mb - 0.00 in0.0 mm 0.00 in0.0 mm
02:00 PM 54.4°F12.4°C 49.7°F9.8°C 84% 11.8 mph WSW19.0 kmh WSW 18.0 mph29.0 kmh 29.57 in1001.4 mb - 0.00 in0.0 mm 0.00 in0.0 mm
02:10 PM 54.3°F12.4°C 49.6°F9.8°C 84% 10.3 mph WSW16.6 kmh WSW 20.0 mph32.2 kmh 29.56 in1001.0 mb - 0.00 in0.0 mm 0.00 in0.0 mm
02:20 PM 54.5°F12.5°C 49.4°F9.7°C 83% 10.7 mph WSW17.2 kmh WSW 22.0 mph35.4 kmh 29.56 in1001.0 mb - 0.00 in0.0 mm 0.00 in0.0 mm
02:30 PM 54.3°F12.4°C 49.2°F9.6°C 83% 11.3 mph NNE18.2 kmh NNE 16.0 mph25.7 kmh 29.57 in1001.4 mb - 0.00 in0.0 mm 0.00 in0.0 mm
02:40 PM 54.4°F12.4°C 49.7°F9.8°C 84% 9.9 mph WSW15.9 kmh WSW 15.0 mph24.1 kmh 29.57 in1001.4 mb - 0.00 in0.0 mm 0.00 in0.0 mm
02:50 PM 54.4°F12.4°C 49.6°F9.8°C 84% 10.4 mph NNW16.7 kmh NNW 18.0 mph29.0 kmh 29.56 in1001.0 mb - 0.00 in0.0 mm 0.00 in0.0 mm
03:00 PM 54.4°F12.4°C 49.3°F9.6°C 83% 10.5 mph SSW16.9 kmh SSW 16.0 mph25.7 kmh 29.57 in1001.4 mb - 0.00 in0.0 mm 0.00 in0.0 mm
03:10 PM 54.2°F12.3°C 49.5°F9.7°C 84% 8.2 mph NW13.2 kmh NW 16.0 mph25.7 kmh 29.57 in1001.4 mb - 0.00 in0.0 mm 0.00 in0.0 mm
03:20 PM 53.9°F12.2°C 49.2°F9.6°C 84% 6.4 mph WSW10.3 kmh WSW 13.0 mph20.9 kmh 29.58 in1001.7 mb - 0.00 in0.0 mm 0.00 in0.0 mm
03:30 PM 53.7°F12.1°C 49.3°F9.6°C 85% 6.4 mph SW10.3 kmh SW 10.0 mph16.1 kmh 29.57 in1001.4 mb - 0.00 in0.0 mm 0.00 in0.0 mm
03:40 PM 53.6°F12.0°C 49.2°F9.6°C 85% 8.7 mph WSW14.0 kmh WSW 15.0 mph24.1 kmh 29.58 in1001.7 mb - 0.00 in0.0 mm 0.00 in0.0 mm
03:50 PM 53.6°F12.0°C 49.2°F9.6°C 85% 8.4 mph SSW13.5 kmh SSW 17.0 mph27.4 kmh 29.58 in1001.7 mb - 0.00 in0.0 mm 0.00 in0.0 mm
04:00 PM 53.6°F12.0°C 49.2°F9.6°C 85% 10.0 mph SW16.1 kmh SW 18.0 mph29.0 kmh 29.58 in1001.7 mb - 0.00 in0.0 mm 0.00 in0.0 mm
04:10 PM 53.3°F11.8°C 48.6°F9.2°C 84% 10.5 mph WNW16.9 kmh WNW 18.0 mph29.0 kmh 29.59 in1002.0 mb - 0.00 in0.0 mm 0.00 in0.0 mm
04:20 PM 53.1°F11.7°C 48.4°F9.1°C 84% 9.9 mph SSW15.9 kmh SSW 16.0 mph25.7 kmh 29.59 in1002.0 mb - 0.00 in0.0 mm 0.00 in0.0 mm
04:30 PM 53.0°F11.7°C 48.3°F9.1°C 84% 11.2 mph SW18.0 kmh SW 17.0 mph27.4 kmh 29.58 in1001.7 mb - 0.00 in0.0 mm 0.00 in0.0 mm
04:40 PM 52.9°F11.6°C 48.2°F9.0°C 84% 9.7 mph W15.6 kmh W 15.0 mph24.1 kmh 29.58 in1001.7 mb - 0.00 in0.0 mm 0.00 in0.0 mm
04:50 PM 52.7°F11.5°C 48.3°F9.1°C 85% 7.8 mph WNW12.6 kmh WNW 13.0 mph20.9 kmh 29.58 in1001.7 mb - 0.00 in0.0 mm 0.00 in0.0 mm
05:00 PM 52.6°F11.4°C 48.2°F9.0°C 85% 10.1 mph SW16.3 kmh SW 16.0 mph25.7 kmh 29.59 in1002.0 mb - 0.00 in0.0 mm 0.00 in0.0 mm
05:10 PM 52.5°F11.4°C 47.8°F8.8°C 84% 7.7 mph SE12.4 kmh SE 15.0 mph24.1 kmh 29.60 in1002.4 mb - 0.00 in0.0 mm 0.00 in0.0 mm
05:20 PM 52.5°F11.4°C 47.8°F8.8°C 84% 8.5 mph NE13.7 kmh NE 15.0 mph24.1 kmh 29.60 in1002.4 mb - 0.00 in0.0 mm 0.00 in0.0 mm
05:30 PM 52.5°F11.4°C 47.8°F8.8°C 84% 8.2 mph SSW13.2 kmh SSW 10.0 mph16.1 kmh 29.60 in1002.4 mb - 0.00 in0.0 mm 0.00 in0.0 mm
05:40 PM 52.5°F11.4°C 47.8°F8.8°C 84% 8.5 mph WSW13.7 kmh WSW 11.0 mph17.7 kmh 29.61 in1002.7 mb - 0.00 in0.0 mm 0.00 in0.0 mm
05:50 PM 52.3°F11.3°C 47.6°F8.7°C 84% 6.1 mph WSW9.8 kmh WSW 12.0 mph19.3 kmh 29.60 in1002.4 mb - 0.00 in0.0 mm 0.00 in0.0 mm
06:00 PM 51.9°F11.1°C 46.9°F8.3°C 83% 7.2 mph SW11.6 kmh SW 12.0 mph19.3 kmh 29.60 in1002.4 mb - 0.00 in0.0 mm 0.00 in0.0 mm
06:10 PM 51.7°F10.9°C 46.7°F8.2°C 83% 7.3 mph S11.7 kmh S 10.0 mph16.1 kmh 29.60 in1002.4 mb - 0.00 in0.0 mm 0.00 in0.0 mm
06:20 PM 51.4°F10.8°C 46.4°F8.0°C 83% 7.9 mph W12.7 kmh W 13.0 mph20.9 kmh 29.60 in1002.4 mb - 0.00 in0.0 mm 0.00 in0.0 mm
06:30 PM 51.4°F10.8°C 46.1°F7.8°C 82% 7.6 mph S12.2 kmh S 13.0 mph20.9 kmh 29.60 in1002.4 mb - 0.00 in0.0 mm 0.00 in0.0 mm
06:40 PM 51.4°F10.8°C 46.1°F7.8°C 82% 8.1 mph W13.0 kmh W 15.0 mph24.1 kmh 29.59 in1002.0 mb - 0.00 in0.0 mm 0.00 in0.0 mm
06:50 PM 51.5°F10.8°C 45.8°F7.7°C 81% 12.1 mph W19.5 kmh W 21.0 mph33.8 kmh 29.61 in1002.7 mb - 0.00 in0.0 mm 0.00 in0.0 mm
07:00 PM 51.5°F10.8°C 45.2°F7.3°C 79% 13.8 mph SW22.2 kmh SW 20.0 mph32.2 kmh 29.59 in1002.0 mb - 0.00 in0.0 mm 0.00 in0.0 mm
07:10 PM 51.5°F10.8°C 45.2°F7.3°C 79% 10.4 mph WSW16.7 kmh WSW 15.0 mph24.1 kmh 29.61 in1002.7 mb - 0.00 in0.0 mm 0.00 in0.0 mm
07:20 PM 51.1°F10.6°C 44.2°F6.8°C 77% 13.2 mph WSW21.2 kmh WSW 20.0 mph32.2 kmh 29.61 in1002.7 mb - 0.00 in0.0 mm 0.00 in0.0 mm
07:30 PM 51.0°F10.6°C 44.0°F6.7°C 77% 12.8 mph NNW20.6 kmh NNW 18.0 mph29.0 kmh 29.63 in1003.4 mb - 0.00 in0.0 mm 0.00 in0.0 mm
07:40 PM 50.8°F10.4°C 43.8°F6.6°C 77% 13.3 mph SW21.4 kmh SW 17.0 mph27.4 kmh 29.63 in1003.4 mb - 0.00 in0.0 mm 0.00 in0.0 mm
07:50 PM 50.6°F10.3°C 44.0°F6.7°C 78% 9.3 mph SW15.0 kmh SW 14.0 mph22.5 kmh 29.64 in1003.7 mb - 0.00 in0.0 mm 0.00 in0.0 mm
08:00 PM 50.3°F10.2°C 43.7°F6.5°C 78% 6.6 mph WSW10.6 kmh WSW 12.0 mph19.3 kmh 29.63 in1003.4 mb - 0.00 in0.0 mm 0.00 in0.0 mm
08:10 PM 50.2°F10.1°C 43.9°F6.6°C 79% 8.4 mph S13.5 kmh S 17.0 mph27.4 kmh 29.64 in1003.7 mb - 0.00 in0.0 mm 0.00 in0.0 mm
08:20 PM 50.1°F10.1°C 44.2°F6.8°C 80% 5.8 mph WSW9.3 kmh WSW 7.0 mph11.3 kmh 29.64 in1003.7 mb - 0.00 in0.0 mm 0.00 in0.0 mm
08:30 PM 49.8°F9.9°C 43.9°F6.6°C 80% 5.9 mph W9.5 kmh W 8.0 mph12.9 kmh 29.65 in1004.1 mb - 0.00 in0.0 mm 0.00 in0.0 mm
08:40 PM 49.5°F9.7°C 43.3°F6.3°C 79% 5.1 mph WSW8.2 kmh WSW 7.0 mph11.3 kmh 29.65 in1004.1 mb - 0.00 in0.0 mm 0.00 in0.0 mm
08:50 PM 49.3°F9.6°C 43.0°F6.1°C 79% 7.1 mph WSW11.4 kmh WSW 11.0 mph17.7 kmh 29.65 in1004.1 mb - 0.00 in0.0 mm 0.00 in0.0 mm
09:00 PM 49.2°F9.6°C 43.3°F6.3°C 80% 6.5 mph SE10.5 kmh SE 9.0 mph14.5 kmh 29.65 in1004.1 mb - 0.00 in0.0 mm 0.00 in0.0 mm
09:10 PM 49.0°F9.4°C 43.4°F6.3°C 81% 3.7 mph SSE6.0 kmh SSE 5.0 mph8.0 kmh 29.65 in1004.1 mb - 0.00 in0.0 mm 0.00 in0.0 mm
09:20 PM 48.8°F9.3°C 43.2°F6.2°C 81% 2.9 mph SSW4.7 kmh SSW 9.0 mph14.5 kmh 29.66 in1004.4 mb - 0.00 in0.0 mm 0.00 in0.0 mm
09:30 PM 48.5°F9.2°C 43.3°F6.3°C 82% 2.9 mph WSW4.7 kmh WSW 5.0 mph8.0 kmh 29.66 in1004.4 mb - 0.00 in0.0 mm 0.00 in0.0 mm
09:40 PM 48.4°F9.1°C 43.1°F6.2°C 82% 1.6 mph WNW2.6 kmh WNW 2.0 mph3.2 kmh 29.65 in1004.1 mb - 0.00 in0.0 mm 0.00 in0.0 mm
09:50 PM 48.2°F9.0°C 43.3°F6.3°C 83% 3.9 mph WSW6.3 kmh WSW 7.0 mph11.3 kmh 29.65 in1004.1 mb - 0.00 in0.0 mm 0.00 in0.0 mm
10:00 PM 47.9°F8.8°C 43.0°F6.1°C 83% 1.7 mph SSW2.7 kmh SSW 6.0 mph9.7 kmh 29.65 in1004.1 mb - 0.00 in0.0 mm 0.00 in0.0 mm
10:10 PM 47.8°F8.8°C 43.2°F6.2°C 84% 2.2 mph S3.5 kmh S 5.0 mph8.0 kmh 29.65 in1004.1 mb - 0.00 in0.0 mm 0.00 in0.0 mm
10:20 PM 47.6°F8.7°C 43.0°F6.1°C 84% 1.7 mph S2.7 kmh S 5.0 mph8.0 kmh 29.65 in1004.1 mb - 0.00 in0.0 mm 0.00 in0.0 mm
10:30 PM 47.5°F8.6°C 42.9°F6.1°C 84% 2.1 mph SE3.4 kmh SE 5.0 mph8.0 kmh 29.65 in1004.1 mb - 0.00 in0.0 mm 0.00 in0.0 mm
10:40 PM 47.3°F8.5°C 42.7°F5.9°C 84% 3.2 mph S5.1 kmh S 6.0 mph9.7 kmh 29.64 in1003.7 mb - 0.00 in0.0 mm 0.00 in0.0 mm
10:50 PM 47.1°F8.4°C 42.5°F5.8°C 84% 5.4 mph SSE8.7 kmh SSE 8.0 mph12.9 kmh 29.65 in1004.1 mb - 0.00 in0.0 mm 0.00 in0.0 mm
11:00 PM 47.0°F8.3°C 42.7°F5.9°C 85% 1.9 mph S3.1 kmh S 4.0 mph6.4 kmh 29.65 in1004.1 mb - 0.00 in0.0 mm 0.00 in0.0 mm
11:10 PM 47.0°F8.3°C 42.7°F5.9°C 85% 2.0 mph SSE3.2 kmh SSE 5.0 mph8.0 kmh 29.64 in1003.7 mb - 0.00 in0.0 mm 0.00 in0.0 mm
11:20 PM 46.9°F8.3°C 42.6°F5.9°C 85% 3.1 mph S5.0 kmh S 6.0 mph9.7 kmh 29.63 in1003.4 mb - 0.00 in0.0 mm 0.00 in0.0 mm
11:30 PM 46.9°F8.3°C 42.6°F5.9°C 85% 2.6 mph SSE4.2 kmh SSE 8.0 mph12.9 kmh 29.62 in1003.0 mb - 0.00 in0.0 mm 0.00 in0.0 mm
11:40 PM 47.1°F8.4°C 42.8°F6.0°C 85% 5.3 mph SSE8.5 kmh SSE 11.0 mph17.7 kmh 29.62 in1003.0 mb - 0.00 in0.0 mm 0.00 in0.0 mm
11:50 PM 47.3°F8.5°C 43.0°F6.1°C 85% 5.5 mph S8.9 kmh S 11.0 mph17.7 kmh 29.61 in1002.7 mb - 0.00 in0.0 mm 0.00 in0.0 mm